Franklin, NH

11:12 AM EST on November 12, 2019 (GMT -0500)
3 Rivers | | Change Station
Active Advisory: Winter Weather Advisory

Elev 285 ft 43.44 °N, 71.65 °W | Updated 8 seconds ago

Snow
Snow
33.4 °F
Feels Like 33 °F
N
0
Wind Variable Wind from SSE
Gusts 0.0 mph

Today
High -- | Low -- °F
--% Chance of Precip.
Yesterday
High -- | Low -- °F
Precip. -- in
Pressure 29.73 in
Visibility 1.8 miles
Clouds Mostly Cloudy 400 ft
Mostly Cloudy 1000 ft
Overcast 1600 ft
Windchill 33 °F
Dew Point 19 °F
Humidity 55%
Rainfall 0.00 in
Snow Depth Not available.
6:35 AM 4:25 PM
Full, 100% visible
METAR KLCI 121556Z AUTO 26011KT 1 3/4SM -SN BR BKN004 BKN010 OVC016 00/00 A2971 RMK AO2 CIG 003V009 SLP066 P0003 T00000000 FZRANO
Pressure 29.73 in
Visibility 1.8 miles
Clouds Mostly Cloudy 400 ft
Mostly Cloudy 1000 ft
Overcast 1600 ft
Windchill 33 °F
Dew Point 19 °F
Humidity 55%
Rainfall 0.00 in
Snow Depth Not available.
6:35 AM 4:25 PM
Full, 100% visible
METAR KLCI 121556Z AUTO 26011KT 1 3/4SM -SN BR BKN004 BKN010 OVC016 00/00 A2971 RMK AO2 CIG 003V009 SLP066 P0003 T00000000 FZRANO

Get Your Daily Forecast Email!

Thanks for signing up!

Be on the lookout for a verification email in your inbox.

You'll start receiving severe weather alerts in your inbox..

×

10-Day Weather Forecast

Almanac

Astronomy

Nov. 12, 2019 Rise Set
Actual Time
Civil Twilight
Nautical Twilight
Astronomical Twilight
Moon
Length of Visible Light
Length of Day
Tomorrow will be .
, % of the Moon is Illuminated

Today's Extremes

State Highs State Lows

Community

WunderPhotos

Category 6

Welcome to Category 6. This is the collective home for Weather Underground's featured writeups by Dr. Jeff Masters (right), Bob Henson (left), Chris Burt, and other regular contributors.

Nearby

Air Quality

  Air Quality AQ Index Pollutant
Not available.

Snow Depth

Station Depth Elevation

Earthquake Activity

City Distance Mag. Time & Date
Minimum magnitude displayed is 2.5.

Coastal Water Temperatures

Place Temperature

Stations

Nearby Weather Stations

Station Location Temp. Windchill Dew Point Humidity Wind Precip. Elev Updated Type
                   

Watches & Warnings

Winter Weather Advisory
Issued: 10:07 AM EST Nov. 12, 2019 – National Weather Service

... Winter Weather Advisory remains in effect until 7 PM EST this
evening...

* what... mixed precipitation. Additional snow accumulations of
up to one inch and ice accumulations of a light glaze.

* Where... portions of central New Hampshire and south central
and southwest Maine.

* When... until 7 PM EST this evening.

* Additional details... plan on slippery Road conditions. The
hazardous conditions could impact the evening commute.

Precautionary/preparedness actions...

A Winter Weather Advisory means that periods of snow, sleet or
freezing rain will cause travel difficulties. Expect slippery
roads and limited visibilities, and use caution while driving.

For a more precise forecast for your specific location... go to
www.Weather.Gov/gray.